sensor_id;sensor_type;location;lat;lon;timestamp;pressure;altitude;pressure_sealevel;temperature;humidity
36454;BME280;22478;51.740;-1.314;2023-04-07T00:02:22;100654.54;;;-2.20;100.00
36454;BME280;22478;51.740;-1.314;2023-04-07T00:04:50;100655.14;;;-2.07;100.00
36454;BME280;22478;51.740;-1.314;2023-04-07T00:07:17;100652.07;;;0.89;100.00
36454;BME280;22478;51.740;-1.314;2023-04-07T00:09:44;100654.16;;;2.14;100.00
36454;BME280;22478;51.740;-1.314;2023-04-07T00:12:11;100662.34;;;-0.40;100.00
36454;BME280;22478;51.740;-1.314;2023-04-07T00:14:38;100672.22;;;-3.45;100.00
36454;BME280;22478;51.740;-1.314;2023-04-07T00:17:06;100677.98;;;-4.02;100.00
36454;BME280;22478;51.740;-1.314;2023-04-07T00:19:33;100670.92;;;-2.02;100.00
36454;BME280;22478;51.740;-1.314;2023-04-07T00:22:00;100659.79;;;0.65;100.00
36454;BME280;22478;51.740;-1.314;2023-04-07T00:24:28;100661.77;;;-1.18;100.00
36454;BME280;22478;51.740;-1.314;2023-04-07T00:26:55;100666.63;;;-0.49;100.00
36454;BME280;22478;51.740;-1.314;2023-04-07T00:29:22;100666.01;;;-1.11;100.00
36454;BME280;22478;51.740;-1.314;2023-04-07T00:31:50;100671.35;;;-1.35;100.00
36454;BME280;22478;51.740;-1.314;2023-04-07T00:34:17;100672.50;;;-2.35;100.00
36454;BME280;22478;51.740;-1.314;2023-04-07T00:36:44;100670.67;;;-0.41;100.00
36454;BME280;22478;51.740;-1.314;2023-04-07T00:39:11;100679.57;;;-2.45;100.00
36454;BME280;22478;51.740;-1.314;2023-04-07T00:41:38;100679.03;;;-1.78;100.00
36454;BME280;22478;51.740;-1.314;2023-04-07T00:44:06;100678.02;;;-0.21;100.00
36454;BME280;22478;51.740;-1.314;2023-04-07T00:46:33;100678.04;;;-0.76;100.00
36454;BME280;22478;51.740;-1.314;2023-04-07T00:49:00;100691.59;;;-2.74;100.00
36454;BME280;22478;51.740;-1.314;2023-04-07T00:51:28;100683.79;;;-1.45;100.00
36454;BME280;22478;51.740;-1.314;2023-04-07T00:53:55;100691.56;;;-2.51;100.00
36454;BME280;22478;51.740;-1.314;2023-04-07T00:56:22;100693.60;;;-3.13;100.00
36454;BME280;22478;51.740;-1.314;2023-04-07T00:58:50;100684.68;;;-1.50;100.00
36454;BME280;22478;51.740;-1.314;2023-04-07T01:01:21;100689.19;;;-2.70;100.00
36454;BME280;22478;51.740;-1.314;2023-04-07T01:03:53;100686.94;;;-2.96;100.00
36454;BME280;22478;51.740;-1.314;2023-04-07T01:06:25;100682.38;;;-2.54;100.00
36454;BME280;22478;51.740;-1.314;2023-04-07T01:09:01;100686.37;;;-1.74;100.00
36454;BME280;22478;51.740;-1.314;2023-04-07T01:11:38;100691.02;;;-3.28;100.00
36454;BME280;22478;51.740;-1.314;2023-04-07T01:14:09;100678.16;;;-0.94;100.00
36454;BME280;22478;51.740;-1.314;2023-04-07T01:16:41;100691.85;;;-2.88;100.00
36454;BME280;22478;51.740;-1.314;2023-04-07T01:19:15;100688.68;;;-2.13;100.00
36454;BME280;22478;51.740;-1.314;2023-04-07T01:21:51;100683.69;;;-3.44;100.00
36454;BME280;22478;51.740;-1.314;2023-04-07T01:24:41;100677.26;;;-2.06;100.00
36454;BME280;22478;51.740;-1.314;2023-04-07T01:27:20;100677.26;;;-2.48;100.00
36454;BME280;22478;51.740;-1.314;2023-04-07T01:29:48;100676.30;;;-1.91;100.00
36454;BME280;22478;51.740;-1.314;2023-04-07T01:32:17;100683.25;;;-2.67;100.00
36454;BME280;22478;51.740;-1.314;2023-04-07T01:34:46;100670.04;;;-1.24;100.00
36454;BME280;22478;51.740;-1.314;2023-04-07T01:37:16;100676.60;;;-1.36;100.00
36454;BME280;22478;51.740;-1.314;2023-04-07T01:39:44;100662.02;;;0.91;100.00
36454;BME280;22478;51.740;-1.314;2023-04-07T01:42:11;100671.03;;;-0.83;100.00
36454;BME280;22478;51.740;-1.314;2023-04-07T01:44:40;100671.99;;;-3.19;100.00
36454;BME280;22478;51.740;-1.314;2023-04-07T01:47:08;100672.36;;;-2.20;100.00
36454;BME280;22478;51.740;-1.314;2023-04-07T01:49:36;100658.92;;;-0.62;100.00
36454;BME280;22478;51.740;-1.314;2023-04-07T01:52:04;100664.92;;;-1.60;100.00
36454;BME280;22478;51.740;-1.314;2023-04-07T01:54:32;100664.27;;;-1.80;100.00
36454;BME280;22478;51.740;-1.314;2023-04-07T01:57:00;100676.15;;;-3.14;100.00
36454;BME280;22478;51.740;-1.314;2023-04-07T01:59:27;100674.38;;;-2.04;100.00
36454;BME280;22478;51.740;-1.314;2023-04-07T02:01:55;100666.06;;;-0.40;100.00
36454;BME280;22478;51.740;-1.314;2023-04-07T02:04:26;100675.69;;;-2.65;100.00
36454;BME280;22478;51.740;-1.314;2023-04-07T02:06:59;100669.09;;;-0.39;100.00
36454;BME280;22478;51.740;-1.314;2023-04-07T02:09:30;100678.01;;;-2.26;100.00
36454;BME280;22478;51.740;-1.314;2023-04-07T02:11:59;100672.10;;;-0.06;100.00
36454;BME280;22478;51.740;-1.314;2023-04-07T02:14:28;100678.93;;;-1.09;100.00
36454;BME280;22478;51.740;-1.314;2023-04-07T02:16:56;100673.57;;;0.88;100.00
36454;BME280;22478;51.740;-1.314;2023-04-07T02:19:25;100679.64;;;-1.33;100.00
36454;BME280;22478;51.740;-1.314;2023-04-07T02:21:53;100673.48;;;-0.47;100.00
36454;BME280;22478;51.740;-1.314;2023-04-07T02:24:20;100668.78;;;1.50;100.00
36454;BME280;22478;51.740;-1.314;2023-04-07T02:26:47;100671.91;;;2.36;100.00
36454;BME280;22478;51.740;-1.314;2023-04-07T02:29:14;100668.63;;;2.28;100.00
36454;BME280;22478;51.740;-1.314;2023-04-07T02:31:42;100669.46;;;2.44;100.00
36454;BME280;22478;51.740;-1.314;2023-04-07T02:34:09;100662.04;;;3.24;100.00
36454;BME280;22478;51.740;-1.314;2023-04-07T02:36:36;100664.46;;;2.16;100.00
36454;BME280;22478;51.740;-1.314;2023-04-07T02:39:03;100656.35;;;3.31;100.00
36454;BME280;22478;51.740;-1.314;2023-04-07T02:41:31;100661.96;;;3.76;100.00
36454;BME280;22478;51.740;-1.314;2023-04-07T02:43:58;100659.63;;;3.94;100.00
36454;BME280;22478;51.740;-1.314;2023-04-07T02:46:25;100666.06;;;3.14;100.00
36454;BME280;22478;51.740;-1.314;2023-04-07T02:48:52;100664.59;;;2.31;100.00
36454;BME280;22478;51.740;-1.314;2023-04-07T02:51:20;100664.13;;;3.51;100.00
36454;BME280;22478;51.740;-1.314;2023-04-07T02:53:47;100665.29;;;4.20;96.11
36454;BME280;22478;51.740;-1.314;2023-04-07T02:56:15;100665.99;;;3.26;95.50
36454;BME280;22478;51.740;-1.314;2023-04-07T02:58:41;100665.48;;;3.84;97.07
36454;BME280;22478;51.740;-1.314;2023-04-07T03:01:09;100666.68;;;3.62;95.68
36454;BME280;22478;51.740;-1.314;2023-04-07T03:03:36;100669.49;;;3.94;95.08
36454;BME280;22478;51.740;-1.314;2023-04-07T03:06:03;100668.24;;;3.19;93.26
36454;BME280;22478;51.740;-1.314;2023-04-07T03:08:31;100663.89;;;4.24;91.24
36454;BME280;22478;51.740;-1.314;2023-04-07T03:10:59;100665.25;;;4.23;91.81
36454;BME280;22478;51.740;-1.314;2023-04-07T03:13:26;100664.40;;;4.31;92.51
36454;BME280;22478;51.740;-1.314;2023-04-07T03:15:53;100668.75;;;3.34;95.39
36454;BME280;22478;51.740;-1.314;2023-04-07T03:18:20;100664.74;;;4.35;92.36
36454;BME280;22478;51.740;-1.314;2023-04-07T03:20:48;100666.28;;;3.03;90.79
36454;BME280;22478;51.740;-1.314;2023-04-07T03:23:15;100665.75;;;5.04;85.94
36454;BME280;22478;51.740;-1.314;2023-04-07T03:25:42;100665.54;;;3.56;90.39
36454;BME280;22478;51.740;-1.314;2023-04-07T03:28:09;100666.76;;;3.55;91.57
36454;BME280;22478;51.740;-1.314;2023-04-07T03:30:36;100668.92;;;3.52;91.68
36454;BME280;22478;51.740;-1.314;2023-04-07T03:33:04;100664.68;;;4.88;84.75
36454;BME280;22478;51.740;-1.314;2023-04-07T03:35:31;100665.24;;;4.07;91.03
36454;BME280;22478;51.740;-1.314;2023-04-07T03:37:58;100666.18;;;4.11;89.41
36454;BME280;22478;51.740;-1.314;2023-04-07T03:40:25;100668.26;;;3.30;93.73
36454;BME280;22478;51.740;-1.314;2023-04-07T03:42:53;100670.16;;;3.31;95.06
36454;BME280;22478;51.740;-1.314;2023-04-07T03:45:20;100667.63;;;3.39;95.05
36454;BME280;22478;51.740;-1.314;2023-04-07T03:47:47;100662.61;;;4.00;93.19
36454;BME280;22478;51.740;-1.314;2023-04-07T03:50:14;100662.91;;;2.60;93.87
36454;BME280;22478;51.740;-1.314;2023-04-07T03:52:41;100657.57;;;3.61;94.63
36454;BME280;22478;51.740;-1.314;2023-04-07T03:55:09;100658.75;;;3.72;94.21
36454;BME280;22478;51.740;-1.314;2023-04-07T03:57:36;100660.32;;;3.70;93.04
36454;BME280;22478;51.740;-1.314;2023-04-07T04:00:05;100661.80;;;2.89;97.84
36454;BME280;22478;51.740;-1.314;2023-04-07T04:02:32;100665.85;;;3.41;96.89
36454;BME280;22478;51.740;-1.314;2023-04-07T04:04:59;100662.19;;;2.97;94.69
36454;BME280;22478;51.740;-1.314;2023-04-07T04:07:27;100663.25;;;3.98;93.05
36454;BME280;22478;51.740;-1.314;2023-04-07T04:09:54;100664.12;;;4.63;88.48
36454;BME280;22478;51.740;-1.314;2023-04-07T04:12:21;100672.10;;;2.96;93.42
36454;BME280;22478;51.740;-1.314;2023-04-07T04:14:48;100673.39;;;3.65;93.23
36454;BME280;22478;51.740;-1.314;2023-04-07T04:17:16;100678.82;;;3.64;93.01
36454;BME280;22478;51.740;-1.314;2023-04-07T04:19:42;100677.54;;;2.91;92.89
36454;BME280;22478;51.740;-1.314;2023-04-07T04:22:10;100681.57;;;1.71;97.94
36454;BME280;22478;51.740;-1.314;2023-04-07T04:24:37;100676.51;;;2.77;100.00
36454;BME280;22478;51.740;-1.314;2023-04-07T04:27:04;100672.63;;;3.05;97.78
36454;BME280;22478;51.740;-1.314;2023-04-07T04:29:32;100675.55;;;3.25;95.65
36454;BME280;22478;51.740;-1.314;2023-04-07T04:31:59;100680.93;;;3.87;92.88
36454;BME280;22478;51.740;-1.314;2023-04-07T04:34:26;100684.48;;;3.53;93.05
36454;BME280;22478;51.740;-1.314;2023-04-07T04:36:53;100684.82;;;3.70;92.98
36454;BME280;22478;51.740;-1.314;2023-04-07T04:39:20;100687.10;;;3.83;92.59
36454;BME280;22478;51.740;-1.314;2023-04-07T04:41:47;100698.47;;;2.10;97.09
36454;BME280;22478;51.740;-1.314;2023-04-07T04:44:15;100692.63;;;3.50;96.54
36454;BME280;22478;51.740;-1.314;2023-04-07T04:46:42;100700.71;;;2.53;98.19
36454;BME280;22478;51.740;-1.314;2023-04-07T04:49:09;100705.41;;;2.95;99.52
36454;BME280;22478;51.740;-1.314;2023-04-07T04:51:36;100707.75;;;2.96;100.00
36454;BME280;22478;51.740;-1.314;2023-04-07T04:54:03;100703.48;;;3.02;94.90
36454;BME280;22478;51.740;-1.314;2023-04-07T04:56:31;100705.77;;;3.91;93.06
36454;BME280;22478;51.740;-1.314;2023-04-07T04:58:58;100708.81;;;3.51;95.05
36454;BME280;22478;51.740;-1.314;2023-04-07T05:01:25;100710.93;;;2.92;96.17
36454;BME280;22478;51.740;-1.314;2023-04-07T05:03:52;100708.13;;;3.67;94.77
36454;BME280;22478;51.740;-1.314;2023-04-07T05:06:20;100707.93;;;3.28;95.16
36454;BME280;22478;51.740;-1.314;2023-04-07T05:08:47;100712.12;;;3.08;93.02
36454;BME280;22478;51.740;-1.314;2023-04-07T05:11:15;100716.04;;;3.62;95.27
36454;BME280;22478;51.740;-1.314;2023-04-07T05:13:42;100715.79;;;2.75;94.16
36454;BME280;22478;51.740;-1.314;2023-04-07T05:16:10;100713.21;;;4.24;94.29
36454;BME280;22478;51.740;-1.314;2023-04-07T05:18:37;100711.98;;;2.77;92.05
36454;BME280;22478;51.740;-1.314;2023-04-07T05:21:04;100719.04;;;3.34;93.38
36454;BME280;22478;51.740;-1.314;2023-04-07T05:23:31;100732.29;;;3.87;92.99
36454;BME280;22478;51.740;-1.314;2023-04-07T05:25:58;100738.42;;;3.44;93.30
36454;BME280;22478;51.740;-1.314;2023-04-07T05:28:26;100736.31;;;4.22;87.98
36454;BME280;22478;51.740;-1.314;2023-04-07T05:30:53;100749.48;;;2.02;97.98
36454;BME280;22478;51.740;-1.314;2023-04-07T05:33:20;100759.93;;;-1.13;100.00
36454;BME280;22478;51.740;-1.314;2023-04-07T05:35:47;100752.32;;;1.41;100.00
36454;BME280;22478;51.740;-1.314;2023-04-07T05:38:15;100753.83;;;2.57;100.00
36454;BME280;22478;51.740;-1.314;2023-04-07T05:40:42;100751.92;;;2.03;100.00
36454;BME280;22478;51.740;-1.314;2023-04-07T05:43:09;100754.56;;;3.07;100.00
36454;BME280;22478;51.740;-1.314;2023-04-07T05:45:36;100751.38;;;2.37;100.00
36454;BME280;22478;51.740;-1.314;2023-04-07T05:48:04;100755.49;;;3.15;96.76
36454;BME280;22478;51.740;-1.314;2023-04-07T05:50:31;100755.59;;;3.25;97.78
36454;BME280;22478;51.740;-1.314;2023-04-07T05:52:58;100761.99;;;3.03;97.42
36454;BME280;22478;51.740;-1.314;2023-04-07T05:55:25;100764.70;;;3.42;96.54
36454;BME280;22478;51.740;-1.314;2023-04-07T05:57:53;100765.24;;;3.31;97.15
36454;BME280;22478;51.740;-1.314;2023-04-07T06:00:20;100765.25;;;4.17;95.65
36454;BME280;22478;51.740;-1.314;2023-04-07T06:02:47;100769.56;;;3.36;96.27
36454;BME280;22478;51.740;-1.314;2023-04-07T06:05:14;100774.26;;;3.23;94.26
36454;BME280;22478;51.740;-1.314;2023-04-07T06:07:42;100776.15;;;4.24;94.27
36454;BME280;22478;51.740;-1.314;2023-04-07T06:10:09;100775.06;;;3.82;94.06
36454;BME280;22478;51.740;-1.314;2023-04-07T06:12:36;100777.92;;;3.57;94.36
36454;BME280;22478;51.740;-1.314;2023-04-07T06:15:03;100775.48;;;4.52;91.00
36454;BME280;22478;51.740;-1.314;2023-04-07T06:17:31;100776.73;;;3.33;91.94
36454;BME280;22478;51.740;-1.314;2023-04-07T06:19:58;100784.31;;;3.73;94.06
36454;BME280;22478;51.740;-1.314;2023-04-07T06:22:26;100780.06;;;3.66;92.83
36454;BME280;22478;51.740;-1.314;2023-04-07T06:24:53;100783.00;;;4.29;92.25
36454;BME280;22478;51.740;-1.314;2023-04-07T06:27:20;100789.75;;;2.67;93.22
36454;BME280;22478;51.740;-1.314;2023-04-07T06:29:47;100787.99;;;4.28;94.01
36454;BME280;22478;51.740;-1.314;2023-04-07T06:32:14;100784.85;;;4.30;94.70
36454;BME280;22478;51.740;-1.314;2023-04-07T06:34:42;100789.53;;;4.57;92.91
36454;BME280;22478;51.740;-1.314;2023-04-07T06:37:09;100787.42;;;4.47;94.51
36454;BME280;22478;51.740;-1.314;2023-04-07T06:39:36;100791.16;;;4.72;93.81
36454;BME280;22478;51.740;-1.314;2023-04-07T06:42:03;100804.88;;;0.35;100.00
36454;BME280;22478;51.740;-1.314;2023-04-07T06:44:30;100805.92;;;1.70;100.00
36454;BME280;22478;51.740;-1.314;2023-04-07T06:46:58;100810.62;;;0.15;100.00
36454;BME280;22478;51.740;-1.314;2023-04-07T06:49:25;100813.57;;;-0.34;100.00
36454;BME280;22478;51.740;-1.314;2023-04-07T06:51:52;100816.57;;;0.69;100.00
36454;BME280;22478;51.740;-1.314;2023-04-07T06:54:19;100822.98;;;-0.75;100.00
36454;BME280;22478;51.740;-1.314;2023-04-07T06:56:46;100821.28;;;0.56;100.00
36454;BME280;22478;51.740;-1.314;2023-04-07T06:59:14;100825.49;;;0.24;100.00
36454;BME280;22478;51.740;-1.314;2023-04-07T07:01:41;100835.26;;;-1.24;100.00
36454;BME280;22478;51.740;-1.314;2023-04-07T07:04:08;100849.23;;;-2.35;100.00
36454;BME280;22478;51.740;-1.314;2023-04-07T07:06:35;100842.27;;;-1.08;100.00
36454;BME280;22478;51.740;-1.314;2023-04-07T07:09:03;100851.47;;;-1.04;100.00
36454;BME280;22478;51.740;-1.314;2023-04-07T07:11:30;100851.54;;;-1.48;100.00
36454;BME280;22478;51.740;-1.314;2023-04-07T07:13:57;100854.77;;;-1.42;100.00
36454;BME280;22478;51.740;-1.314;2023-04-07T07:16:25;100857.36;;;-2.35;100.00
36454;BME280;22478;51.740;-1.314;2023-04-07T07:18:51;100858.62;;;-1.03;100.00
36454;BME280;22478;51.740;-1.314;2023-04-07T07:21:19;100857.26;;;-0.64;100.00
36454;BME280;22478;51.740;-1.314;2023-04-07T07:23:46;100863.55;;;-1.24;100.00
36454;BME280;22478;51.740;-1.314;2023-04-07T07:26:13;100855.95;;;0.24;100.00
36454;BME280;22478;51.740;-1.314;2023-04-07T07:28:41;100863.98;;;-1.70;100.00
36454;BME280;22478;51.740;-1.314;2023-04-07T07:31:09;100852.15;;;2.05;100.00
36454;BME280;22478;51.740;-1.314;2023-04-07T07:33:36;100858.20;;;-0.63;100.00
36454;BME280;22478;51.740;-1.314;2023-04-07T07:36:04;100871.28;;;-1.24;100.00
36454;BME280;22478;51.740;-1.314;2023-04-07T07:38:31;100869.47;;;-2.02;100.00
36454;BME280;22478;51.740;-1.314;2023-04-07T07:40:59;100859.59;;;-0.06;100.00
36454;BME280;22478;51.740;-1.314;2023-04-07T07:43:26;100862.82;;;0.23;100.00
36454;BME280;22478;51.740;-1.314;2023-04-07T07:45:53;100869.24;;;0.16;100.00
36454;BME280;22478;51.740;-1.314;2023-04-07T07:48:21;100871.69;;;0.93;100.00
36454;BME280;22478;51.740;-1.314;2023-04-07T07:50:49;100866.29;;;1.22;100.00
36454;BME280;22478;51.740;-1.314;2023-04-07T07:53:16;100868.72;;;1.25;100.00
36454;BME280;22478;51.740;-1.314;2023-04-07T07:55:44;100866.52;;;1.74;100.00
36454;BME280;22478;51.740;-1.314;2023-04-07T07:58:11;100864.18;;;2.54;100.00
36454;BME280;22478;51.740;-1.314;2023-04-07T08:00:38;100864.06;;;3.93;100.00
36454;BME280;22478;51.740;-1.314;2023-04-07T08:03:06;100870.53;;;1.03;100.00
36454;BME280;22478;51.740;-1.314;2023-04-07T08:05:32;100870.29;;;2.46;100.00
36454;BME280;22478;51.740;-1.314;2023-04-07T08:08:00;100861.23;;;5.67;100.00
36454;BME280;22478;51.740;-1.314;2023-04-07T08:10:27;100868.63;;;3.03;100.00
36454;BME280;22478;51.740;-1.314;2023-04-07T08:12:54;100868.07;;;3.71;100.00
36454;BME280;22478;51.740;-1.314;2023-04-07T08:15:21;100869.25;;;2.67;100.00
36454;BME280;22478;51.740;-1.314;2023-04-07T08:17:49;100855.68;;;5.04;100.00
36454;BME280;22478;51.740;-1.314;2023-04-07T08:20:16;100853.71;;;7.38;97.28
36454;BME280;22478;51.740;-1.314;2023-04-07T08:22:44;100848.38;;;10.48;80.75
36454;BME280;22478;51.740;-1.314;2023-04-07T08:25:11;100848.47;;;10.71;75.67
36454;BME280;22478;51.740;-1.314;2023-04-07T08:27:38;100846.95;;;11.88;61.32
36454;BME280;22478;51.740;-1.314;2023-04-07T08:30:06;100850.79;;;10.95;69.08
36454;BME280;22478;51.740;-1.314;2023-04-07T08:32:35;100847.18;;;11.21;65.90
36454;BME280;22478;51.740;-1.314;2023-04-07T08:35:03;100860.55;;;4.55;88.75
36454;BME280;22478;51.740;-1.314;2023-04-07T08:37:31;100867.89;;;4.03;91.29
36454;BME280;22478;51.740;-1.314;2023-04-07T08:39:58;100857.54;;;7.55;81.21
36454;BME280;22478;51.740;-1.314;2023-04-07T08:42:28;100859.94;;;6.69;76.32
36454;BME280;22478;51.740;-1.314;2023-04-07T08:44:57;100871.53;;;4.94;87.93
36454;BME280;22478;51.740;-1.314;2023-04-07T08:47:25;100857.23;;;8.14;78.62
36454;BME280;22478;51.740;-1.314;2023-04-07T08:49:53;100865.28;;;7.24;77.60
36454;BME280;22478;51.740;-1.314;2023-04-07T08:52:26;100857.04;;;10.24;67.77
36454;BME280;22478;51.740;-1.314;2023-04-07T08:54:55;100863.72;;;6.73;84.78
36454;BME280;22478;51.740;-1.314;2023-04-07T08:57:23;100852.89;;;9.37;69.09
36454;BME280;22478;51.740;-1.314;2023-04-07T08:59:51;100863.10;;;8.47;65.88
36454;BME280;22478;51.740;-1.314;2023-04-07T09:02:19;100873.76;;;4.07;100.00
36454;BME280;22478;51.740;-1.314;2023-04-07T09:04:47;100868.97;;;6.96;79.88
36454;BME280;22478;51.740;-1.314;2023-04-07T09:07:14;100871.53;;;5.29;92.85
36454;BME280;22478;51.740;-1.314;2023-04-07T09:09:42;100871.59;;;4.15;98.21
36454;BME280;22478;51.740;-1.314;2023-04-07T09:12:09;100866.02;;;6.34;84.36
36454;BME280;22478;51.740;-1.314;2023-04-07T09:14:36;100870.53;;;5.58;90.20
36454;BME280;22478;51.740;-1.314;2023-04-07T09:17:03;100868.81;;;7.08;78.56
36454;BME280;22478;51.740;-1.314;2023-04-07T09:19:31;100870.21;;;4.89;87.85
36454;BME280;22478;51.740;-1.314;2023-04-07T09:21:59;100874.38;;;3.19;98.72
36454;BME280;22478;51.740;-1.314;2023-04-07T09:24:28;100872.65;;;2.95;100.00
36454;BME280;22478;51.740;-1.314;2023-04-07T09:27:08;100881.65;;;3.27;100.00
36454;BME280;22478;51.740;-1.314;2023-04-07T09:29:36;100877.50;;;2.57;100.00
36454;BME280;22478;51.740;-1.314;2023-04-07T09:32:03;100877.72;;;2.86;100.00
36454;BME280;22478;51.740;-1.314;2023-04-07T09:34:33;100868.87;;;4.78;100.00
36454;BME280;22478;51.740;-1.314;2023-04-07T09:37:02;100869.47;;;4.77;95.82
36454;BME280;22478;51.740;-1.314;2023-04-07T09:39:29;100862.63;;;7.17;85.45
36454;BME280;22478;51.740;-1.314;2023-04-07T09:41:56;100866.22;;;4.42;93.94
36454;BME280;22478;51.740;-1.314;2023-04-07T09:44:24;100858.52;;;8.12;81.62
36454;BME280;22478;51.740;-1.314;2023-04-07T09:46:52;100863.51;;;3.60;100.00
36454;BME280;22478;51.740;-1.314;2023-04-07T09:49:21;100865.08;;;4.50;100.00
36454;BME280;22478;51.740;-1.314;2023-04-07T09:51:53;100858.28;;;7.78;84.87
36454;BME280;22478;51.740;-1.314;2023-04-07T09:54:32;100855.56;;;7.32;77.61
36454;BME280;22478;51.740;-1.314;2023-04-07T09:57:01;100835.35;;;11.02;66.78
36454;BME280;22478;51.740;-1.314;2023-04-07T09:59:29;100836.63;;;10.95;63.04
36454;BME280;22478;51.740;-1.314;2023-04-07T10:01:57;100837.86;;;11.12;61.98
36454;BME280;22478;51.740;-1.314;2023-04-07T10:04:25;100828.01;;;13.73;54.11
36454;BME280;22478;51.740;-1.314;2023-04-07T10:06:53;100820.28;;;16.25;45.58
36454;BME280;22478;51.740;-1.314;2023-04-07T10:09:22;100810.98;;;19.84;39.96
36454;BME280;22478;51.740;-1.314;2023-04-07T10:11:50;100811.13;;;18.51;39.49
36454;BME280;22478;51.740;-1.314;2023-04-07T10:14:19;100812.94;;;18.48;39.98
36454;BME280;22478;51.740;-1.314;2023-04-07T10:16:47;100827.50;;;13.13;40.86
36454;BME280;22478;51.740;-1.314;2023-04-07T10:19:14;100832.19;;;11.42;54.04
36454;BME280;22478;51.740;-1.314;2023-04-07T10:21:43;100816.64;;;19.06;39.50
36454;BME280;22478;51.740;-1.314;2023-04-07T10:24:18;100826.72;;;16.39;45.48
36454;BME280;22478;51.740;-1.314;2023-04-07T10:26:55;100824.68;;;14.40;41.27
36454;BME280;22478;51.740;-1.314;2023-04-07T10:29:24;100829.22;;;16.67;40.32
36454;BME280;22478;51.740;-1.314;2023-04-07T10:31:52;100831.86;;;14.34;46.56
36454;BME280;22478;51.740;-1.314;2023-04-07T10:34:54;100834.60;;;13.13;45.96
36454;BME280;22478;51.740;-1.314;2023-04-07T10:37:22;100842.19;;;10.78;54.48
36454;BME280;22478;51.740;-1.314;2023-04-07T10:39:53;100825.70;;;14.39;48.99
36454;BME280;22478;51.740;-1.314;2023-04-07T10:42:52;100822.54;;;15.77;41.67
36454;BME280;22478;51.740;-1.314;2023-04-07T10:45:52;100818.71;;;16.35;37.50
36454;BME280;22478;51.740;-1.314;2023-04-07T10:48:19;100839.59;;;6.92;65.60
36454;BME280;22478;51.740;-1.314;2023-04-07T10:51:11;100835.32;;;10.32;67.50
36454;BME280;22478;51.740;-1.314;2023-04-07T10:54:14;100828.32;;;12.19;53.28
36454;BME280;22478;51.740;-1.314;2023-04-07T10:57:14;100832.16;;;7.66;62.73
36454;BME280;22478;51.740;-1.314;2023-04-07T11:00:15;100824.54;;;12.01;52.82
36454;BME280;22478;51.740;-1.314;2023-04-07T11:02:43;100817.79;;;13.93;51.02
36454;BME280;22478;51.740;-1.314;2023-04-07T11:05:26;100821.22;;;11.15;54.07
36454;BME280;22478;51.740;-1.314;2023-04-07T11:07:54;100810.33;;;15.10;45.16
36454;BME280;22478;51.740;-1.314;2023-04-07T11:10:21;100811.54;;;13.57;47.33
36454;BME280;22478;51.740;-1.314;2023-04-07T11:13:05;100801.35;;;17.73;40.56
36454;BME280;22478;51.740;-1.314;2023-04-07T11:15:34;100809.78;;;14.77;46.35
36454;BME280;22478;51.740;-1.314;2023-04-07T11:18:19;100812.17;;;11.83;52.83
36454;BME280;22478;51.740;-1.314;2023-04-07T11:20:49;100813.59;;;12.21;50.91
36454;BME280;22478;51.740;-1.314;2023-04-07T11:23:18;100812.75;;;11.35;51.11
36454;BME280;22478;51.740;-1.314;2023-04-07T11:25:46;100810.35;;;14.46;44.03
36454;BME280;22478;51.740;-1.314;2023-04-07T11:28:14;100809.84;;;13.91;47.48
36454;BME280;22478;51.740;-1.314;2023-04-07T11:30:47;100805.38;;;17.62;37.36
36454;BME280;22478;51.740;-1.314;2023-04-07T11:33:16;100815.89;;;11.46;47.70
36454;BME280;22478;51.740;-1.314;2023-04-07T11:35:52;100811.09;;;13.41;42.96
36454;BME280;22478;51.740;-1.314;2023-04-07T11:38:21;100802.19;;;16.97;37.88
36454;BME280;22478;51.740;-1.314;2023-04-07T11:40:48;100803.36;;;15.31;35.99
36454;BME280;22478;51.740;-1.314;2023-04-07T11:43:18;100802.91;;;17.85;32.69
36454;BME280;22478;51.740;-1.314;2023-04-07T11:45:47;100812.58;;;13.18;41.77
36454;BME280;22478;51.740;-1.314;2023-04-07T11:48:30;100814.47;;;13.03;45.11
36454;BME280;22478;51.740;-1.314;2023-04-07T11:50:57;100810.64;;;13.46;43.54
36454;BME280;22478;51.740;-1.314;2023-04-07T11:53:26;100803.16;;;11.95;46.43
36454;BME280;22478;51.740;-1.314;2023-04-07T11:56:03;100801.99;;;13.09;42.31
36454;BME280;22478;51.740;-1.314;2023-04-07T11:58:31;100799.77;;;14.10;40.40
36454;BME280;22478;51.740;-1.314;2023-04-07T12:01:02;100792.17;;;17.49;36.03
36454;BME280;22478;51.740;-1.314;2023-04-07T12:03:29;100799.26;;;14.02;39.01
36454;BME280;22478;51.740;-1.314;2023-04-07T12:05:57;100790.71;;;17.88;32.69
36454;BME280;22478;51.740;-1.314;2023-04-07T12:08:36;100798.76;;;13.41;36.12
36454;BME280;22478;51.740;-1.314;2023-04-07T12:11:04;100802.23;;;13.30;36.43
36454;BME280;22478;51.740;-1.314;2023-04-07T12:13:32;100801.04;;;15.98;32.99
36454;BME280;22478;51.740;-1.314;2023-04-07T12:16:00;100791.82;;;18.75;31.11
36454;BME280;22478;51.740;-1.314;2023-04-07T12:18:27;100800.81;;;14.61;33.13
36454;BME280;22478;51.740;-1.314;2023-04-07T12:20:55;100800.50;;;13.82;38.64
36454;BME280;22478;51.740;-1.314;2023-04-07T12:23:22;100790.78;;;18.01;33.80
36454;BME280;22478;51.740;-1.314;2023-04-07T12:25:50;100784.26;;;19.68;30.39
36454;BME280;22478;51.740;-1.314;2023-04-07T12:28:17;100787.09;;;17.64;33.34
36454;BME280;22478;51.740;-1.314;2023-04-07T12:30:45;100793.03;;;15.56;35.00
36454;BME280;22478;51.740;-1.314;2023-04-07T12:33:13;100787.02;;;15.61;33.58
36454;BME280;22478;51.740;-1.314;2023-04-07T12:35:41;100805.75;;;11.63;39.20
36454;BME280;22478;51.740;-1.314;2023-04-07T12:38:08;100799.70;;;13.54;37.97
36454;BME280;22478;51.740;-1.314;2023-04-07T12:40:35;100797.11;;;15.02;36.22
36454;BME280;22478;51.740;-1.314;2023-04-07T12:43:03;100796.85;;;14.56;37.21
36454;BME280;22478;51.740;-1.314;2023-04-07T12:45:31;100803.42;;;11.78;42.59
36454;BME280;22478;51.740;-1.314;2023-04-07T12:47:58;100805.83;;;11.44;40.63
36454;BME280;22478;51.740;-1.314;2023-04-07T12:50:25;100801.95;;;13.95;41.03